Time;durP1;ratioP1;P1;durP2;ratioP2;P2;SDS_P1;SDS_P2;PMS_P1;PMS_P2;Temp;Humidity;BMP_temperature;BMP_pressure;BME280_temperature;BME280_humidity;BME280_pressure;Samples;Min_cycle;Max_cycle;Signal;HPM_P1;HPM_P2
2023/08/23 00:00:37;;;;;;;3.42;1.20;;;15.10;99.90;;;;;;5048012;28;20504;-59
2023/08/23 00:03:05;;;;;;;8.77;2.00;;;15.10;99.90;;;;;;5033381;28;20061;-59
2023/08/23 00:05:33;;;;;;;4.88;1.35;;;15.00;99.90;;;;;;5047586;28;20049;-60
2023/08/23 00:08:00;;;;;;;5.15;1.23;;;15.00;99.90;;;;;;5047232;28;20045;-59
2023/08/23 00:10:28;;;;;;;5.97;1.63;;;15.00;99.90;;;;;;5048725;28;20507;-59
2023/08/23 00:12:56;;;;;;;6.15;1.15;;;15.00;99.90;;;;;;5031781;28;20057;-60
2023/08/23 00:15:24;;;;;;;9.50;1.75;;;14.90;99.90;;;;;;5043158;28;20536;-59
2023/08/23 00:17:51;;;;;;;4.75;1.27;;;14.90;99.90;;;;;;5048429;28;20049;-59
2023/08/23 00:20:19;;;;;;;6.18;1.48;;;14.90;99.90;;;;;;5047378;28;20041;-59
2023/08/23 00:22:47;;;;;;;3.00;1.30;;;14.90;99.90;;;;;;5048745;28;20056;-59
2023/08/23 00:25:15;;;;;;;2.75;1.42;;;14.80;99.90;;;;;;5049203;28;20415;-59
2023/08/23 00:27:43;;;;;;;8.20;1.55;;;14.80;99.90;;;;;;5045648;28;20052;-59
2023/08/23 00:30:11;;;;;;;7.20;1.60;;;14.80;99.90;;;;;;5047094;28;20448;-59
2023/08/23 00:32:39;;;;;;;8.48;1.50;;;14.80;99.90;;;;;;5029705;28;20504;-59
2023/08/23 00:35:07;;;;;;;7.68;1.55;;;14.80;99.90;;;;;;5033767;28;20045;-60
2023/08/23 00:37:35;;;;;;;6.55;1.48;;;14.80;99.90;;;;;;5035019;28;20084;-59
2023/08/23 00:40:03;;;;;;;8.73;2.05;;;14.80;99.90;;;;;;5066945;28;20048;-59
2023/08/23 00:42:32;;;;;;;7.10;1.50;;;14.80;99.90;;;;;;5053936;28;20051;-59
2023/08/23 00:45:00;;;;;;;8.10;1.85;;;14.80;99.90;;;;;;5058991;28;20052;-58
2023/08/23 00:47:29;;;;;;;7.85;1.90;;;14.80;99.90;;;;;;5039343;28;20485;-60
2023/08/23 00:49:57;;;;;;;9.32;1.63;;;14.70;99.90;;;;;;5023460;28;20052;-59
2023/08/23 00:52:27;;;;;;;5.75;1.50;;;14.80;99.90;;;;;;5021974;28;20060;-59
2023/08/23 00:55:06;;;;;;;8.93;1.90;;;14.70;99.90;;;;;;5044310;28;20056;-59
2023/08/23 00:57:34;;;;;;;6.63;1.63;;;14.70;99.90;;;;;;5043390;28;20484;-59
2023/08/23 01:00:03;;;;;;;6.20;1.52;;;14.70;99.90;;;;;;5044388;28;20316;-59
2023/08/23 01:02:30;;;;;;;11.20;1.90;;;14.70;99.90;;;;;;5040694;28;20049;-59
2023/08/23 01:04:59;;;;;;;5.65;1.73;;;14.70;99.90;;;;;;5046234;28;20040;-60
2023/08/23 01:07:42;;;;;;;9.10;1.83;;;14.70;99.90;;;;;;5047763;28;20052;-61
2023/08/23 01:10:25;;;;;;;8.27;1.55;;;14.80;99.90;;;;;;5048091;28;20396;-60
2023/08/23 01:13:09;;;;;;;6.15;1.40;;;14.80;99.90;;;;;;5047511;28;20033;-60
2023/08/23 01:15:37;;;;;;;9.50;1.60;;;14.80;99.90;;;;;;5031287;28;20060;-60
2023/08/23 01:18:05;;;;;;;8.73;2.03;;;14.80;99.90;;;;;;5024584;28;20041;-59
2023/08/23 01:20:35;;;;;;;8.25;1.80;;;14.90;99.90;;;;;;5025033;28;20072;-59
2023/08/23 01:23:16;;;;;;;5.57;1.30;;;14.90;99.90;;;;;;5044130;28;20052;-59
2023/08/23 01:25:47;;;;;;;7.18;1.40;;;14.90;99.90;;;;;;5051445;28;20041;-59
2023/08/23 01:28:15;;;;;;;6.53;1.27;;;14.90;99.90;;;;;;5056329;28;20048;-59
2023/08/23 01:30:43;;;;;;;8.25;1.73;;;14.90;99.90;;;;;;5057477;28;20046;-59
2023/08/23 01:33:29;;;;;;;7.47;1.63;;;14.90;99.90;;;;;;5051183;28;20052;-60
2023/08/23 01:36:14;;;;;;;13.05;1.60;;;14.90;99.90;;;;;;5050542;28;20522;-58
2023/08/23 01:38:43;;;;;;;6.78;1.33;;;14.90;99.90;;;;;;5049570;28;20404;-59
2023/08/23 01:41:10;;;;;;;9.23;1.55;;;14.90;99.90;;;;;;5050961;28;20044;-60
2023/08/23 01:43:38;;;;;;;9.00;1.60;;;14.80;99.90;;;;;;5050924;28;20041;-59
2023/08/23 01:46:06;;;;;;;6.43;1.88;;;14.80;99.90;;;;;;5049598;28;20048;-59
2023/08/23 01:48:34;;;;;;;5.00;1.42;;;14.80;99.90;;;;;;5049211;28;20063;-59
2023/08/23 01:51:04;;;;;;;11.75;1.70;;;14.80;99.90;;;;;;5050827;28;20408;-59
2023/08/23 01:53:32;;;;;;;6.05;1.60;;;14.80;99.90;;;;;;5049725;28;20049;-59
2023/08/23 01:56:00;;;;;;;6.38;1.77;;;14.80;99.90;;;;;;5074718;28;20037;-59
2023/08/23 01:58:27;;;;;;;7.53;1.50;;;14.70;99.90;;;;;;5049202;28;20053;-60
2023/08/23 02:00:55;;;;;;;9.20;1.77;;;14.80;99.90;;;;;;5049426;28;20048;-59
2023/08/23 02:03:23;;;;;;;7.57;2.00;;;14.70;99.90;;;;;;5070227;28;20044;-59
2023/08/23 02:05:54;;;;;;;8.05;2.15;;;14.70;99.90;;;;;;5067989;28;20056;-59
2023/08/23 02:08:22;;;;;;;8.80;2.38;;;14.70;99.90;;;;;;5053575;28;20056;-59
2023/08/23 02:10:50;;;;;;;4.72;1.60;;;14.80;99.90;;;;;;5054260;28;20041;-59
2023/08/23 02:13:18;;;;;;;9.55;1.75;;;14.70;99.90;;;;;;5052995;28;20554;-60
2023/08/23 02:15:45;;;;;;;9.55;2.17;;;14.70;99.90;;;;;;5053527;28;20045;-59
2023/08/23 02:18:13;;;;;;;7.18;2.00;;;14.70;99.90;;;;;;5038711;28;20488;-60
2023/08/23 02:20:44;;;;;;;10.70;1.80;;;14.70;99.90;;;;;;5053349;28;20476;-60
2023/08/23 02:23:11;;;;;;;5.15;2.08;;;14.70;99.90;;;;;;5054422;28;20041;-60
2023/08/23 02:25:41;;;;;;;8.68;2.00;;;14.70;99.90;;;;;;5054261;28;20049;-60
2023/08/23 02:28:08;;;;;;;3.75;1.30;;;14.80;99.90;;;;;;5052271;28;20132;-60
2023/08/23 02:30:38;;;;;;;5.05;1.50;;;14.80;99.90;;;;;;5053755;28;20056;-60
2023/08/23 02:33:06;;;;;;;6.68;1.70;;;14.90;99.90;;;;;;5053109;28;20412;-60
2023/08/23 02:35:39;;;;;;;8.77;1.50;;;14.90;99.90;;;;;;5050680;28;20052;-59
2023/08/23 02:38:08;;;;;;;7.63;1.70;;;15.00;99.90;;;;;;5034109;28;20041;-59
2023/08/23 02:40:39;;;;;;;5.50;2.28;;;15.00;99.90;;;;;;5033057;28;20052;-60
2023/08/23 02:43:07;;;;;;;6.63;1.95;;;15.00;99.90;;;;;;5034021;28;20413;-60
2023/08/23 02:45:41;;;;;;;7.68;1.70;;;15.10;99.90;;;;;;5032956;28;20393;-59
2023/08/23 02:48:10;;;;;;;9.50;2.13;;;15.10;99.90;;;;;;5033719;28;20053;-60
2023/08/23 02:50:38;;;;;;;8.82;1.73;;;15.10;99.90;;;;;;5033839;28;20473;-60
2023/08/23 02:53:06;;;;;;;9.75;1.60;;;15.10;99.90;;;;;;5051980;28;20052;-59
2023/08/23 02:55:36;;;;;;;13.57;1.90;;;15.20;99.90;;;;;;5066404;28;20041;-58
2023/08/23 02:58:05;;;;;;;8.95;2.00;;;15.20;99.90;;;;;;5052658;28;20060;-59
2023/08/23 03:00:33;;;;;;;5.38;1.33;;;15.20;99.90;;;;;;5053304;28;20520;-59
2023/08/23 03:03:01;;;;;;;6.90;1.67;;;15.20;99.90;;;;;;5034835;28;20511;-59
2023/08/23 03:05:29;;;;;;;6.07;1.73;;;15.20;99.90;;;;;;5053448;28;20496;-60
2023/08/23 03:07:56;;;;;;;6.43;1.48;;;15.20;99.90;;;;;;5051725;28;20045;-59
2023/08/23 03:10:24;;;;;;;11.25;2.08;;;15.20;99.90;;;;;;5052334;28;20041;-59
2023/08/23 03:12:52;;;;;;;8.40;1.92;;;15.20;99.90;;;;;;5053165;28;20037;-59
2023/08/23 03:15:20;;;;;;;6.03;1.70;;;15.20;99.90;;;;;;5051871;28;20511;-59
2023/08/23 03:17:47;;;;;;;10.63;2.10;;;15.20;99.90;;;;;;5052756;28;20040;-59
2023/08/23 03:20:16;;;;;;;10.88;1.77;;;15.20;99.90;;;;;;5051868;28;20053;-59
2023/08/23 03:22:43;;;;;;;5.40;1.65;;;15.20;99.90;;;;;;5051787;28;20033;-59
2023/08/23 03:25:12;;;;;;;6.47;1.60;;;15.20;99.90;;;;;;5062598;28;20429;-59
2023/08/23 03:27:40;;;;;;;10.63;1.95;;;15.20;99.90;;;;;;5060188;28;20041;-59
2023/08/23 03:30:08;;;;;;;4.97;1.48;;;15.20;99.90;;;;;;5035044;28;20060;-59
2023/08/23 03:32:37;;;;;;;5.83;1.80;;;15.10;99.90;;;;;;5050791;28;20045;-59
2023/08/23 03:35:05;;;;;;;9.15;2.00;;;15.10;99.90;;;;;;5051486;28;20306;-59
2023/08/23 03:37:32;;;;;;;7.00;1.67;;;15.10;99.90;;;;;;5052810;28;20044;-59
2023/08/23 03:40:00;;;;;;;6.63;1.80;;;15.10;99.90;;;;;;5051199;28;20041;-59
2023/08/23 03:42:28;;;;;;;8.55;1.67;;;15.10;99.90;;;;;;5035181;28;20045;-59
2023/08/23 03:44:56;;;;;;;6.95;1.90;;;15.00;99.90;;;;;;5052921;28;20476;-59
2023/08/23 03:47:23;;;;;;;8.13;2.10;;;15.00;99.90;;;;;;5051491;28;20045;-59
2023/08/23 03:49:51;;;;;;;5.55;2.10;;;15.00;99.90;;;;;;5051032;28;20037;-59
2023/08/23 03:52:20;;;;;;;5.47;2.05;;;14.90;99.90;;;;;;5040830;28;20041;-58
2023/08/23 03:54:47;;;;;;;15.13;2.30;;;15.00;99.90;;;;;;5046235;28;20045;-59
2023/08/23 03:57:15;;;;;;;5.38;1.65;;;14.90;99.90;;;;;;5071311;28;20412;-59
2023/08/23 03:59:42;;;;;;;5.82;1.95;;;14.90;99.90;;;;;;5064332;28;20404;-59
2023/08/23 04:02:10;;;;;;;5.35;1.63;;;14.90;99.90;;;;;;5051933;28;20045;-59
2023/08/23 04:04:38;;;;;;;6.55;2.33;;;14.90;99.90;;;;;;5052374;28;20048;-59
2023/08/23 04:07:09;;;;;;;8.55;1.90;;;14.90;99.90;;;;;;5049467;28;20116;-59
2023/08/23 04:09:39;;;;;;;5.95;1.80;;;14.80;99.90;;;;;;5050260;28;20056;-59
2023/08/23 04:12:09;;;;;;;6.43;2.17;;;14.80;99.90;;;;;;5051690;28;20059;-59
2023/08/23 04:14:37;;;;;;;7.68;2.17;;;14.80;99.90;;;;;;5052114;28;20060;-59
2023/08/23 04:17:04;;;;;;;4.90;1.85;;;14.80;99.90;;;;;;5050799;28;20481;-59
2023/08/23 04:19:32;;;;;;;8.52;2.90;;;14.70;99.90;;;;;;5051935;28;20067;-59
2023/08/23 04:22:00;;;;;;;7.03;2.20;;;14.70;99.90;;;;;;5034249;28;20408;-59
2023/08/23 04:24:28;;;;;;;12.43;2.45;;;14.70;99.90;;;;;;5055178;28;20041;-59
2023/08/23 04:26:55;;;;;;;4.78;1.88;;;14.80;99.90;;;;;;5064166;28;20041;-59
2023/08/23 04:29:23;;;;;;;7.38;1.90;;;14.80;99.90;;;;;;5051199;28;20041;-59
2023/08/23 04:31:55;;;;;;;8.68;2.00;;;14.80;99.90;;;;;;5051079;28;20053;-59
2023/08/23 04:34:28;;;;;;;8.75;2.17;;;14.80;99.90;;;;;;5030318;28;20385;-59
2023/08/23 04:36:56;;;;;;;6.32;2.28;;;14.70;99.90;;;;;;5030792;28;20041;-59
2023/08/23 04:39:24;;;;;;;5.57;2.17;;;14.70;99.90;;;;;;5018341;28;20033;-59
2023/08/23 04:41:51;;;;;;;8.38;2.05;;;14.70;99.90;;;;;;5050550;28;20381;-60
2023/08/23 04:44:19;;;;;;;7.78;2.15;;;14.70;99.90;;;;;;5051651;28;20053;-59
2023/08/23 04:46:47;;;;;;;5.25;1.85;;;14.70;99.90;;;;;;5051744;28;20052;-59
2023/08/23 04:49:16;;;;;;;5.22;2.13;;;14.70;99.90;;;;;;5042264;28;20495;-59
2023/08/23 04:51:44;;;;;;;8.75;2.13;;;14.60;99.90;;;;;;5047714;28;20033;-59
2023/08/23 04:54:12;;;;;;;6.13;2.17;;;14.60;99.90;;;;;;5050450;28;20052;-59
2023/08/23 04:56:39;;;;;;;8.15;1.80;;;14.60;99.90;;;;;;5067063;28;20049;-59
2023/08/23 04:59:07;;;;;;;5.95;2.00;;;14.60;99.90;;;;;;5049410;28;20052;-60
2023/08/23 05:01:35;;;;;;;8.77;2.33;;;14.60;99.90;;;;;;5044171;28;20505;-59
2023/08/23 05:04:07;;;;;;;6.07;2.17;;;14.60;99.90;;;;;;5038798;28;20060;-59
2023/08/23 05:06:36;;;;;;;5.75;2.60;;;14.60;99.90;;;;;;5044636;28;20407;-60
2023/08/23 05:09:06;;;;;;;7.70;2.40;;;14.60;99.90;;;;;;5039184;28;20057;-59
2023/08/23 05:11:34;;;;;;;6.80;2.20;;;14.60;99.90;;;;;;5039917;28;20053;-59
2023/08/23 05:14:03;;;;;;;12.07;2.58;;;14.70;99.90;;;;;;5046548;28;20112;-59
2023/08/23 05:16:31;;;;;;;6.43;2.28;;;14.70;99.90;;;;;;5046921;28;20052;-59
2023/08/23 05:18:59;;;;;;;5.82;2.30;;;14.70;99.90;;;;;;5045673;28;20052;-59
2023/08/23 05:21:27;;;;;;;6.93;2.38;;;14.70;99.90;;;;;;5055921;28;20060;-59
2023/08/23 05:23:54;;;;;;;4.53;1.90;;;14.70;99.90;;;;;;5046384;28;20047;-60
2023/08/23 05:26:22;;;;;;;7.97;2.65;;;14.70;99.90;;;;;;5030263;28;20053;-59
2023/08/23 05:28:50;;;;;;;4.93;2.22;;;14.70;99.90;;;;;;5047353;28;20048;-59
2023/08/23 05:31:19;;;;;;;9.10;2.38;;;14.70;99.90;;;;;;5046526;28;20044;-59
2023/08/23 05:33:47;;;;;;;8.57;2.17;;;14.70;99.90;;;;;;5048475;28;20041;-59
2023/08/23 05:36:16;;;;;;;5.85;2.28;;;14.70;99.90;;;;;;5043526;28;20256;-59
2023/08/23 05:38:46;;;;;;;7.72;2.30;;;14.70;99.90;;;;;;5043587;28;20040;-59
2023/08/23 05:41:14;;;;;;;8.27;2.20;;;14.70;99.90;;;;;;5046389;28;20519;-60
2023/08/23 05:43:42;;;;;;;10.05;2.40;;;14.70;99.90;;;;;;5051316;28;20068;-59
2023/08/23 05:46:10;;;;;;;5.18;2.20;;;14.70;99.90;;;;;;5050143;28;20055;-59
2023/08/23 05:48:38;;;;;;;12.40;2.38;;;14.70;99.90;;;;;;5046432;28;20036;-59
2023/08/23 05:51:07;;;;;;;8.65;2.47;;;14.80;99.90;;;;;;5066743;28;20059;-59
2023/08/23 05:53:35;;;;;;;6.30;2.47;;;14.80;99.90;;;;;;5049239;28;20049;-59
2023/08/23 05:56:03;;;;;;;4.80;2.38;;;14.80;99.90;;;;;;5035716;28;20045;-59
2023/08/23 05:58:31;;;;;;;8.27;2.45;;;14.80;99.90;;;;;;5043294;28;20448;-59
2023/08/23 06:00:58;;;;;;;5.22;2.17;;;14.80;99.90;;;;;;5050540;28;20061;-59
2023/08/23 06:03:26;;;;;;;8.73;2.85;;;14.90;99.90;;;;;;5048104;28;20049;-59
2023/08/23 06:05:59;;;;;;;4.97;2.25;;;14.90;99.90;;;;;;5040035;28;20052;-59
2023/08/23 06:08:27;;;;;;;8.80;2.30;;;14.90;99.90;;;;;;5050932;28;20044;-59
2023/08/23 06:10:54;;;;;;;5.80;2.70;;;14.90;99.90;;;;;;5037269;28;20412;-59
2023/08/23 06:13:22;;;;;;;9.10;2.40;;;14.90;99.90;;;;;;5048258;28;20045;-59
2023/08/23 06:15:50;;;;;;;10.23;2.38;;;14.90;99.90;;;;;;5049926;28;20049;-60
2023/08/23 06:18:18;;;;;;;4.05;2.15;;;15.00;99.90;;;;;;5050815;28;20044;-58
2023/08/23 06:20:49;;;;;;;7.03;2.63;;;15.00;99.90;;;;;;5050758;28;20106;-59
2023/08/23 06:23:17;;;;;;;7.40;2.58;;;15.00;99.90;;;;;;5044580;28;20049;-59
2023/08/23 06:25:44;;;;;;;6.82;2.30;;;15.00;99.90;;;;;;5045997;28;20459;-59
2023/08/23 06:28:13;;;;;;;12.52;2.63;;;15.10;99.90;;;;;;5047452;28;20045;-60
2023/08/23 06:30:41;;;;;;;5.65;2.80;;;15.10;99.90;;;;;;5047871;28;20497;-60
2023/08/23 06:33:09;;;;;;;7.88;2.45;;;15.20;99.90;;;;;;5050166;28;20572;-59
2023/08/23 06:35:37;;;;;;;9.82;2.70;;;15.20;99.90;;;;;;5040350;28;20046;-59
2023/08/23 06:38:04;;;;;;;10.57;2.42;;;15.30;99.90;;;;;;5040050;28;20505;-59
2023/08/23 06:40:32;;;;;;;9.02;2.53;;;15.40;99.90;;;;;;5032090;28;20054;-60
2023/08/23 06:43:00;;;;;;;6.15;2.53;;;15.40;99.90;;;;;;5045095;28;20048;-59
2023/08/23 06:45:31;;;;;;;7.80;2.47;;;15.40;99.90;;;;;;5048629;28;20068;-60
2023/08/23 06:47:58;;;;;;;6.22;2.22;;;15.40;99.90;;;;;;5043631;28;20392;-60
2023/08/23 06:50:26;;;;;;;10.90;2.30;;;15.50;99.90;;;;;;5026731;28;20041;-60
2023/08/23 06:52:54;;;;;;;7.10;2.00;;;15.50;99.90;;;;;;5036158;28;20396;-60
2023/08/23 06:55:23;;;;;;;6.97;2.40;;;15.50;99.90;;;;;;5048182;28;20088;-59
2023/08/23 06:57:50;;;;;;;6.22;2.40;;;15.50;99.90;;;;;;5034850;28;20045;-60
2023/08/23 07:00:20;;;;;;;9.80;2.58;;;15.50;99.90;;;;;;5048309;28;20055;-60
2023/08/23 07:02:49;;;;;;;7.68;2.33;;;15.60;99.90;;;;;;5050627;28;20032;-59
2023/08/23 07:05:17;;;;;;;7.13;2.03;;;15.60;99.90;;;;;;5044918;28;20366;-60
2023/08/23 07:07:44;;;;;;;5.40;2.03;;;15.60;99.90;;;;;;5047326;28;20060;-59
2023/08/23 07:10:12;;;;;;;6.00;2.33;;;15.60;99.90;;;;;;5045741;28;20056;-60
2023/08/23 07:12:55;;;;;;;6.07;2.20;;;15.60;99.90;;;;;;5044535;28;20037;-60
2023/08/23 07:15:23;;;;;;;10.48;2.67;;;15.60;99.90;;;;;;5049959;28;20056;-60
2023/08/23 07:17:51;;;;;;;10.75;2.80;;;15.60;99.90;;;;;;5049661;28;20044;-59
2023/08/23 07:20:19;;;;;;;7.68;2.55;;;15.60;99.90;;;;;;5049973;28;20048;-59
2023/08/23 07:22:46;;;;;;;8.02;2.60;;;15.70;99.90;;;;;;5048284;28;20037;-59
2023/08/23 07:25:14;;;;;;;7.22;2.53;;;15.70;99.90;;;;;;5038371;28;20475;-60
2023/08/23 07:27:42;;;;;;;9.45;3.22;;;15.80;99.90;;;;;;5034583;28;20052;-60
2023/08/23 07:30:11;;;;;;;13.77;3.30;;;15.80;99.90;;;;;;5049537;28;20057;-60
2023/08/23 07:32:39;;;;;;;13.55;3.28;;;15.80;99.90;;;;;;5047717;28;20056;-59
2023/08/23 07:35:07;;;;;;;8.85;2.50;;;15.80;99.90;;;;;;5029130;28;20068;-60
2023/08/23 07:37:36;;;;;;;9.07;3.10;;;15.80;99.90;;;;;;5049217;28;20040;-60
2023/08/23 07:40:04;;;;;;;12.98;3.05;;;15.80;99.90;;;;;;5049728;28;20495;-60
2023/08/23 07:42:32;;;;;;;12.65;3.50;;;15.90;99.90;;;;;;5043594;28;21249;-61
2023/08/23 07:45:00;;;;;;;9.73;3.20;;;15.90;99.90;;;;;;5037740;28;20033;-62
2023/08/23 07:47:27;;;;;;;11.18;3.38;;;16.00;99.90;;;;;;5043166;28;20045;-62
2023/08/23 07:49:55;;;;;;;6.40;2.88;;;16.00;99.90;;;;;;5048924;28;20052;-62
2023/08/23 07:52:23;;;;;;;10.52;3.38;;;16.00;99.90;;;;;;5036182;28;20057;-62
2023/08/23 07:54:51;;;;;;;6.82;2.85;;;16.00;99.90;;;;;;5045177;28;20037;-61
2023/08/23 07:57:18;;;;;;;8.80;3.33;;;16.10;99.90;;;;;;5035121;28;20060;-61
2023/08/23 07:59:46;;;;;;;11.10;3.10;;;16.10;99.90;;;;;;5029813;28;20041;-60
2023/08/23 08:02:14;;;;;;;6.32;2.90;;;16.10;99.90;;;;;;5038076;28;20739;-61
2023/08/23 08:04:43;;;;;;;10.48;3.47;;;16.10;99.90;;;;;;5037631;28;20381;-60
2023/08/23 08:07:11;;;;;;;10.25;3.50;;;16.10;99.90;;;;;;5027724;28;20057;-61
2023/08/23 08:09:45;;;;;;;6.78;3.28;;;16.10;99.90;;;;;;5028043;28;20053;-61
2023/08/23 08:12:13;;;;;;;11.85;3.40;;;16.20;99.90;;;;;;5033933;28;20052;-60
2023/08/23 08:14:41;;;;;;;11.60;4.10;;;16.20;99.90;;;;;;5037283;28;20049;-61
2023/08/23 08:17:08;;;;;;;7.78;3.17;;;16.30;99.90;;;;;;5028982;28;20045;-60
2023/08/23 08:19:36;;;;;;;7.97;3.45;;;16.40;99.90;;;;;;5048744;28;20049;-61
2023/08/23 08:22:04;;;;;;;8.57;3.40;;;16.50;99.90;;;;;;5048187;28;20061;-61
2023/08/23 08:24:32;;;;;;;8.35;2.75;;;16.60;99.90;;;;;;5053140;28;20492;-60
2023/08/23 08:27:01;;;;;;;6.15;2.92;;;16.70;99.90;;;;;;5068517;28;20044;-61
2023/08/23 08:29:29;;;;;;;6.97;2.70;;;16.70;99.90;;;;;;5044732;28;20053;-61
2023/08/23 08:31:56;;;;;;;6.82;2.35;;;16.90;99.90;;;;;;5030543;28;20049;-61
2023/08/23 08:34:24;;;;;;;6.10;2.58;;;17.00;99.90;;;;;;5046722;28;20400;-61
2023/08/23 08:36:52;;;;;;;5.65;2.20;;;17.10;99.90;;;;;;5048140;28;20587;-61
2023/08/23 08:39:21;;;;;;;4.70;2.57;;;17.20;99.90;;;;;;5043062;28;20041;-61
2023/08/23 08:41:49;;;;;;;4.82;2.28;;;17.30;99.90;;;;;;5027325;28;20053;-61
2023/08/23 08:44:17;;;;;;;7.88;2.45;;;17.40;99.90;;;;;;5056314;28;20040;-61
2023/08/23 08:46:45;;;;;;;6.70;2.53;;;17.50;99.90;;;;;;5045931;28;20051;-60
2023/08/23 08:49:13;;;;;;;5.57;2.42;;;17.50;99.90;;;;;;5046556;28;20065;-61
2023/08/23 08:51:44;;;;;;;8.43;2.47;;;17.50;99.90;;;;;;5044332;28;20060;-61
2023/08/23 08:54:15;;;;;;;5.57;3.05;;;17.60;99.90;;;;;;5030814;28;20046;-62
2023/08/23 08:56:47;;;;;;;7.63;3.05;;;17.70;99.90;;;;;;5048103;28;20049;-61
2023/08/23 08:59:16;;;;;;;6.25;2.30;;;17.70;99.90;;;;;;5045229;28;20045;-61
2023/08/23 09:01:49;;;;;;;5.25;2.42;;;17.80;99.90;;;;;;5047274;28;20052;-60
2023/08/23 09:04:16;;;;;;;9.15;2.42;;;17.90;99.90;;;;;;5046712;28;20060;-62
2023/08/23 09:06:45;;;;;;;7.00;2.25;;;18.10;99.90;;;;;;5047136;28;20045;-62
2023/08/23 09:09:13;;;;;;;6.65;2.70;;;18.00;99.90;;;;;;5047711;28;20049;-62
2023/08/23 09:11:41;;;;;;;3.40;2.28;;;18.10;99.90;;;;;;5047899;28;20112;-61
2023/08/23 09:14:16;;;;;;;6.05;2.08;;;18.20;99.90;;;;;;5053104;28;20049;-62
2023/08/23 09:16:46;;;;;;;4.32;1.92;;;18.30;99.90;;;;;;5025863;28;20053;-62
2023/08/23 09:19:14;;;;;;;3.83;2.03;;;18.50;99.90;;;;;;5041394;28;20064;-62
2023/08/23 09:21:43;;;;;;;4.57;1.80;;;18.60;99.90;;;;;;5045156;28;20053;-62
2023/08/23 09:24:12;;;;;;;5.15;2.03;;;18.70;99.90;;;;;;5044990;28;20049;-62
2023/08/23 09:26:46;;;;;;;3.45;1.70;;;18.70;99.90;;;;;;5065073;28;20052;-62
2023/08/23 09:29:14;;;;;;;4.18;2.05;;;18.70;99.90;;;;;;5046559;28;20048;-62
2023/08/23 09:31:43;;;;;;;2.43;1.30;;;18.70;99.90;;;;;;5058963;28;20056;-62
2023/08/23 09:34:14;;;;;;;3.90;1.23;;;18.70;99.90;;;;;;5053283;28;20290;-62
2023/08/23 09:36:42;;;;;;;2.70;1.35;;;18.70;99.90;;;;;;5045540;28;20044;-62
2023/08/23 09:39:11;;;;;;;5.43;1.70;;;18.80;99.90;;;;;;5047699;28;20722;-62
2023/08/23 09:41:42;;;;;;;6.53;1.45;;;18.80;99.90;;;;;;5048037;28;20056;-62
2023/08/23 09:44:29;;;;;;;3.42;1.23;;;18.90;99.90;;;;;;5049497;28;20037;-64
2023/08/23 09:47:00;;;;;;;5.03;1.30;;;19.00;99.90;;;;;;5046290;28;20060;-61
2023/08/23 09:49:32;;;;;;;2.42;1.20;;;19.10;99.90;;;;;;5030068;28;20408;-62
2023/08/23 09:52:02;;;;;;;5.82;1.60;;;19.20;99.90;;;;;;5050756;28;20468;-63
2023/08/23 09:54:40;;;;;;;4.85;1.60;;;19.20;99.90;;;;;;5049716;28;20040;-62
2023/08/23 09:57:24;;;;;;;6.75;1.40;;;19.30;99.90;;;;;;5046318;28;20060;-62
2023/08/23 09:59:52;;;;;;;4.00;1.27;;;19.40;99.90;;;;;;5044816;28;20052;-60
2023/08/23 10:02:21;;;;;;;3.90;1.60;;;19.40;99.90;;;;;;5039523;28;20049;-61
2023/08/23 10:04:50;;;;;;;4.15;1.27;;;19.50;99.90;;;;;;5042655;28;20049;-60
2023/08/23 10:07:20;;;;;;;2.15;1.20;;;19.60;99.90;;;;;;5045379;28;20053;-60
2023/08/23 10:09:48;;;;;;;3.53;1.48;;;19.70;99.90;;;;;;5038440;28;20052;-60
2023/08/23 10:12:17;;;;;;;4.75;1.05;;;19.70;99.90;;;;;;5031557;28;20049;-60
2023/08/23 10:14:48;;;;;;;2.53;1.40;;;19.80;99.90;;;;;;5047376;28;20545;-60
2023/08/23 10:17:19;;;;;;;4.20;1.42;;;19.80;99.90;;;;;;5028291;28;20050;-60
2023/08/23 10:19:47;;;;;;;5.07;1.45;;;19.80;99.90;;;;;;5047475;28;20507;-62
2023/08/23 10:22:16;;;;;;;3.53;1.55;;;19.90;99.90;;;;;;5044684;28;20053;-62
2023/08/23 10:24:48;;;;;;;8.10;1.30;;;19.90;99.90;;;;;;5053679;28;20496;-61
2023/08/23 10:27:17;;;;;;;5.07;1.23;;;19.90;99.90;;;;;;5058141;28;20298;-60
2023/08/23 10:29:51;;;;;;;3.25;1.10;;;20.00;99.90;;;;;;5051003;28;20060;-60
2023/08/23 10:32:20;;;;;;;3.53;1.33;;;20.10;99.90;;;;;;5032764;28;20052;-60
2023/08/23 10:34:47;;;;;;;3.95;1.27;;;20.20;99.90;;;;;;5032903;28;20049;-60
2023/08/23 10:37:19;;;;;;;2.92;1.10;;;20.30;99.90;;;;;;5031228;28;20061;-61
2023/08/23 10:39:52;;;;;;;2.00;1.00;;;20.50;99.90;;;;;;5050672;28;20041;-60
2023/08/23 10:42:21;;;;;;;1.00;0.90;;;20.80;99.90;;;;;;5048908;28;20060;-60
2023/08/23 10:45:04;;;;;;;1.05;0.88;;;20.90;99.90;;;;;;5048658;28;20056;-61
2023/08/23 10:47:36;;;;;;;4.93;1.40;;;21.20;99.90;;;;;;5033578;28;20562;-60
2023/08/23 10:50:05;;;;;;;4.05;1.30;;;21.40;99.90;;;;;;5049166;28;20049;-59
2023/08/23 10:52:33;;;;;;;4.43;0.83;;;21.50;99.90;;;;;;5013555;28;20052;-60
2023/08/23 10:55:02;;;;;;;1.63;1.10;;;21.50;99.90;;;;;;5058292;28;20063;-60
2023/08/23 10:57:30;;;;;;;2.83;1.00;;;21.40;99.90;;;;;;5062474;28;20068;-60
2023/08/23 10:59:57;;;;;;;3.33;0.95;;;21.20;99.90;;;;;;5046236;28;20392;-61
2023/08/23 11:02:25;;;;;;;3.60;1.23;;;21.10;99.90;;;;;;5036173;28;20049;-61
2023/08/23 11:04:55;;;;;;;4.40;1.20;;;21.10;99.90;;;;;;5049585;28;20045;-61
2023/08/23 11:07:25;;;;;;;2.63;0.98;;;21.00;99.90;;;;;;5047672;28;20505;-61
2023/08/23 11:09:54;;;;;;;3.40;0.90;;;21.00;99.90;;;;;;5050118;28;20060;-60
2023/08/23 11:12:23;;;;;;;3.10;1.10;;;21.00;99.90;;;;;;5050136;28;20041;-61
2023/08/23 11:14:50;;;;;;;2.65;0.90;;;20.90;99.90;;;;;;5048440;28;20377;-62
2023/08/23 11:17:20;;;;;;;1.27;0.80;;;20.90;99.90;;;;;;5045724;28;20409;-61
2023/08/23 11:19:47;;;;;;;1.80;1.02;;;21.00;99.90;;;;;;5050023;28;20059;-60
2023/08/23 11:22:17;;;;;;;1.38;0.80;;;21.20;99.90;;;;;;5046446;28;20408;-61
2023/08/23 11:24:46;;;;;;;2.97;0.93;;;21.20;99.90;;;;;;5049927;28;20041;-60
2023/08/23 11:27:14;;;;;;;5.43;0.93;;;21.20;99.90;;;;;;5050177;28;20083;-60
2023/08/23 11:29:42;;;;;;;1.58;0.60;;;21.20;99.90;;;;;;5069798;28;20285;-61
2023/08/23 11:32:13;;;;;;;3.40;0.70;;;21.30;99.90;;;;;;5045182;28;20053;-61
2023/08/23 11:34:41;;;;;;;1.63;0.65;;;21.50;99.90;;;;;;5047783;28;20049;-61
2023/08/23 11:37:09;;;;;;;2.35;0.70;;;21.80;99.90;;;;;;5048754;28;20072;-60
2023/08/23 11:39:37;;;;;;;3.25;0.95;;;22.10;99.90;;;;;;5069347;28;20519;-60
2023/08/23 11:42:06;;;;;;;1.75;0.68;;;22.20;99.90;;;;;;5064343;28;20573;-60
2023/08/23 11:44:33;;;;;;;2.35;0.75;;;22.20;99.90;;;;;;5030299;28;20056;-60
2023/08/23 11:47:02;;;;;;;1.70;0.38;;;22.20;99.90;;;;;;5046514;28;20060;-60
2023/08/23 11:49:29;;;;;;;1.17;0.50;;;22.10;99.90;;;;;;5049293;28;20045;-61
2023/08/23 11:51:58;;;;;;;0.68;0.50;;;22.00;99.90;;;;;;5047908;28;20513;-64
2023/08/23 11:54:26;;;;;;;2.40;0.77;;;22.00;99.90;;;;;;5067747;28;20403;-62
2023/08/23 11:57:00;;;;;;;3.60;0.73;;;22.00;99.90;;;;;;5069289;28;20048;-62
2023/08/23 11:59:28;;;;;;;1.35;0.40;;;21.90;99.90;;;;;;5050075;28;20056;-63
2023/08/23 12:01:56;;;;;;;4.45;0.68;;;21.90;99.90;;;;;;5044030;28;20044;-63
2023/08/23 12:04:25;;;;;;;2.53;0.63;;;21.90;99.90;;;;;;5047688;28;20863;-63
2023/08/23 12:06:53;;;;;;;1.35;0.40;;;21.80;99.90;;;;;;5045887;28;20124;-62
2023/08/23 12:09:20;;;;;;;1.38;0.55;;;21.90;99.90;;;;;;5045925;28;20048;-61
2023/08/23 12:11:48;;;;;;;0.93;0.50;;;21.90;99.90;;;;;;5048144;28;20056;-60
2023/08/23 12:14:16;;;;;;;2.35;1.20;;;22.00;99.90;;;;;;5054041;28;20041;-61
2023/08/23 12:16:44;;;;;;;1.25;0.93;;;22.00;99.90;;;;;;5056548;28;20060;-61
2023/08/23 12:19:12;;;;;;;2.67;0.98;;;22.10;99.90;;;;;;5047370;28;20515;-62
2023/08/23 12:21:57;;;;;;;1.70;0.60;;;22.10;99.90;;;;;;5048505;28;20060;-61
2023/08/23 12:24:25;;;;;;;2.45;0.80;;;22.30;99.90;;;;;;5052270;28;20048;-62
2023/08/23 12:26:53;;;;;;;1.38;0.60;;;22.60;99.90;;;;;;5068786;28;20475;-61
2023/08/23 12:29:22;;;;;;;0.95;0.65;;;22.70;99.90;;;;;;5050610;28;20056;-61
2023/08/23 12:31:50;;;;;;;0.57;0.50;;;22.80;99.90;;;;;;5040334;28;20048;-61
2023/08/23 12:34:18;;;;;;;0.70;0.47;;;22.70;99.90;;;;;;5041870;28;20052;-60
2023/08/23 12:36:46;;;;;;;1.88;0.85;;;22.50;99.90;;;;;;5048420;28;20060;-61
2023/08/23 12:39:16;;;;;;;2.22;0.73;;;22.40;99.90;;;;;;5046551;28;20053;-61
2023/08/23 12:41:44;;;;;;;1.42;1.33;;;22.40;99.90;;;;;;5048657;28;20120;-60
2023/08/23 12:44:11;;;;;;;2.05;0.80;;;22.60;99.90;;;;;;5065874;28;20047;-61
2023/08/23 12:46:39;;;;;;;3.03;0.80;;;22.80;99.90;;;;;;5044822;28;20053;-60
2023/08/23 12:49:12;;;;;;;1.27;0.70;;;23.20;99.90;;;;;;5045605;28;20248;-60
2023/08/23 12:51:41;;;;;;;3.67;1.13;;;23.60;99.90;;;;;;5047095;28;20048;-60
2023/08/23 12:54:09;;;;;;;1.27;0.77;;;24.20;99.90;;;;;;5049080;28;20575;-61